Time,TemperatureF,DewpointF,PressureIn,WindDirection,WindDirectionDegrees,WindSpeedMPH,WindSpeedGustMPH,Humidity,HourlyPrecipIn,Conditions,Clouds,dailyrainin,SoftwareType,DateUTC
2013-03-15 00:00:00,34.3,24.5,30.14,North,355,0.0,0.0,67,0.00,,,0.00,Wunderground v.1.15,2013-03-15 06:00:00,
2013-03-15 00:05:00,34.3,23.7,30.14,North,355,0.0,0.0,65,0.00,,,0.00,Wunderground v.1.15,2013-03-15 06:05:00,
2013-03-15 00:10:00,33.7,23.5,30.14,North,355,0.0,0.0,66,0.00,,,0.00,Wunderground v.1.15,2013-03-15 06:10:00,
2013-03-15 00:15:00,33.5,23.7,30.12,North,355,0.0,0.0,67,0.00,,,0.00,Wunderground v.1.15,2013-03-15 06:15:00,
2013-03-15 00:20:00,33.4,23.6,30.12,North,355,0.0,0.0,67,0.00,,,0.00,Wunderground v.1.15,2013-03-15 06:20:00,
2013-03-15 00:25:00,33.1,23.3,30.12,North,355,0.0,0.0,67,0.00,,,0.00,Wunderground v.1.15,2013-03-15 06:25:00,
2013-03-15 00:30:00,32.8,23.0,30.12,North,355,0.0,0.0,67,0.00,,,0.00,Wunderground v.1.15,2013-03-15 06:30:00,
2013-03-15 00:35:00,32.8,23.4,30.12,North,355,0.0,0.0,68,0.00,,,0.00,Wunderground v.1.15,2013-03-15 06:35:00,
2013-03-15 00:40:00,32.7,23.3,30.12,North,355,0.0,0.0,68,0.00,,,0.00,Wunderground v.1.15,2013-03-15 06:40:00,
2013-03-15 00:45:00,32.5,23.1,30.12,North,355,0.0,0.0,68,0.00,,,0.00,Wunderground v.1.15,2013-03-15 06:45:00,
2013-03-15 00:50:00,32.5,23.5,30.12,North,355,0.0,0.0,69,0.00,,,0.00,Wunderground v.1.15,2013-03-15 06:50:00,
2013-03-15 00:55:00,32.8,24.1,30.12,North,355,0.0,0.0,70,0.00,,,0.00,Wunderground v.1.15,2013-03-15 06:55:00,
2013-03-15 01:01:00,33.2,24.8,30.12,North,355,0.0,0.0,71,0.00,,,0.00,Wunderground v.1.15,2013-03-15 07:01:00,
2013-03-15 01:05:00,33.8,25.4,30.12,North,355,0.0,0.0,71,0.00,,,0.00,Wunderground v.1.15,2013-03-15 07:05:00,
2013-03-15 01:10:00,34.0,25.2,30.12,North,355,0.0,0.0,70,0.00,,,0.00,Wunderground v.1.15,2013-03-15 07:10:00,
2013-03-15 01:15:00,34.1,25.0,30.11,North,355,0.0,0.0,69,0.00,,,0.00,Wunderground v.1.15,2013-03-15 07:15:00,
2013-03-15 01:20:00,34.4,25.6,30.11,North,355,0.0,0.0,70,0.00,,,0.00,Wunderground v.1.15,2013-03-15 07:20:00,
2013-03-15 01:25:00,34.9,26.4,30.11,North,355,0.0,0.0,71,0.00,,,0.00,Wunderground v.1.15,2013-03-15 07:25:00,
2013-03-15 01:30:00,35.5,27.0,30.09,North,355,0.0,0.0,71,0.00,,,0.00,Wunderground v.1.15,2013-03-15 07:30:00,
2013-03-15 01:35:00,35.9,26.7,30.09,North,355,0.0,0.0,69,0.00,,,0.00,Wunderground v.1.15,2013-03-15 07:35:00,
2013-03-15 01:41:00,36.0,27.2,30.09,North,355,0.0,0.0,70,0.00,,,0.00,Wunderground v.1.15,2013-03-15 07:41:00,
2013-03-15 01:46:00,35.9,26.7,30.08,North,355,0.0,0.0,69,0.00,,,0.00,Wunderground v.1.15,2013-03-15 07:46:00,
2013-03-15 01:51:00,35.6,26.4,30.08,North,355,0.0,2.0,69,0.00,,,0.00,Wunderground v.1.15,2013-03-15 07:51:00,
2013-03-15 01:56:00,35.8,27.0,30.08,North,355,0.0,2.0,70,0.00,,,0.00,Wunderground v.1.15,2013-03-15 07:56:00,
2013-03-15 02:01:00,35.3,26.1,30.08,North,355,0.0,0.0,69,0.00,,,0.00,Wunderground v.1.15,2013-03-15 08:01:00,
2013-03-15 02:06:00,35.2,26.0,30.08,North,355,0.0,0.0,69,0.00,,,0.00,Wunderground v.1.15,2013-03-15 08:06:00,
2013-03-15 02:11:00,35.0,26.5,30.08,North,355,0.0,0.0,71,0.00,,,0.00,Wunderground v.1.15,2013-03-15 08:11:00,
2013-03-15 02:16:00,35.0,25.9,30.07,North,355,0.0,0.0,69,0.00,,,0.00,Wunderground v.1.15,2013-03-15 08:16:00,
2013-03-15 02:21:00,34.9,26.4,30.07,North,355,0.0,0.0,71,0.00,,,0.00,Wunderground v.1.15,2013-03-15 08:21:00,
2013-03-15 02:26:00,34.6,25.8,30.07,North,355,0.0,0.0,70,0.00,,,0.00,Wunderground v.1.15,2013-03-15 08:26:00,
2013-03-15 02:32:00,34.4,26.0,30.07,North,355,0.0,0.0,71,0.00,,,0.00,Wunderground v.1.15,2013-03-15 08:32:00,
2013-03-15 02:37:00,34.7,26.3,30.07,North,355,0.0,0.0,71,0.00,,,0.00,Wunderground v.1.15,2013-03-15 08:37:00,
2013-03-15 02:42:00,34.9,26.8,30.07,North,355,0.0,0.0,72,0.00,,,0.00,Wunderground v.1.15,2013-03-15 08:42:00,
2013-03-15 02:47:00,35.2,27.1,30.07,North,355,0.0,2.0,72,0.00,,,0.00,Wunderground v.1.15,2013-03-15 08:47:00,
2013-03-15 02:52:00,35.3,27.2,30.07,North,355,0.0,0.0,72,0.00,,,0.00,Wunderground v.1.15,2013-03-15 08:52:00,
2013-03-15 02:57:00,35.5,27.4,30.07,North,355,0.0,0.0,72,0.00,,,0.00,Wunderground v.1.15,2013-03-15 08:57:00,
2013-03-15 03:02:00,35.2,26.7,30.05,North,355,0.0,0.0,71,0.00,,,0.00,Wunderground v.1.15,2013-03-15 09:02:00,
2013-03-15 03:07:00,35.2,27.1,30.05,North,355,0.0,0.0,72,0.00,,,0.00,Wunderground v.1.15,2013-03-15 09:07:00,
2013-03-15 03:12:00,35.2,27.4,30.05,North,355,0.0,0.0,73,0.00,,,0.00,Wunderground v.1.15,2013-03-15 09:12:00,
2013-03-15 03:17:00,35.3,27.5,30.04,North,355,0.0,0.0,73,0.00,,,0.00,Wunderground v.1.15,2013-03-15 09:17:00,
2013-03-15 03:22:00,35.2,27.4,30.04,North,355,0.0,0.0,73,0.00,,,0.00,Wunderground v.1.15,2013-03-15 09:22:00,
2013-03-15 03:27:00,34.9,26.8,30.04,North,355,0.0,0.0,72,0.00,,,0.00,Wunderground v.1.15,2013-03-15 09:27:00,
2013-03-15 03:32:00,34.7,26.6,30.04,North,355,0.0,0.0,72,0.00,,,0.00,Wunderground v.1.15,2013-03-15 09:32:00,
2013-03-15 03:37:00,34.4,26.3,30.04,North,355,0.0,0.0,72,0.00,,,0.00,Wunderground v.1.15,2013-03-15 09:37:00,
2013-03-15 03:42:00,34.1,26.0,30.04,North,355,0.0,0.0,72,0.00,,,0.00,Wunderground v.1.15,2013-03-15 09:42:00,
2013-03-15 03:47:00,34.3,26.9,30.02,North,355,0.0,0.0,74,0.00,,,0.00,Wunderground v.1.15,2013-03-15 09:47:00,
2013-03-15 03:52:00,34.3,26.5,30.02,North,355,0.0,0.0,73,0.00,,,0.00,Wunderground v.1.15,2013-03-15 09:52:00,
2013-03-15 03:57:00,34.0,26.3,30.03,North,355,0.0,0.0,73,0.00,,,0.00,Wunderground v.1.15,2013-03-15 09:57:00,
2013-03-15 04:02:00,34.1,26.7,30.03,North,355,3.0,4.0,74,0.00,,,0.00,Wunderground v.1.15,2013-03-15 10:02:00,
2013-03-15 04:07:00,33.8,26.1,30.03,North,355,0.0,4.0,73,0.00,,,0.00,Wunderground v.1.15,2013-03-15 10:07:00,
2013-03-15 04:12:00,33.4,25.3,30.03,North,355,0.0,1.0,72,0.00,,,0.00,Wunderground v.1.15,2013-03-15 10:12:00,
2013-03-15 04:17:00,32.5,24.8,30.03,North,355,0.0,1.0,73,0.00,,,0.00,Wunderground v.1.15,2013-03-15 10:17:00,
2013-03-15 04:22:00,32.7,25.3,30.03,North,355,0.0,0.0,74,0.00,,,0.00,Wunderground v.1.15,2013-03-15 10:22:00,
2013-03-15 04:27:00,32.7,25.3,30.02,North,355,0.0,0.0,74,0.00,,,0.00,Wunderground v.1.15,2013-03-15 10:27:00,
2013-03-15 04:32:00,32.2,24.5,30.02,North,355,0.0,0.0,73,0.00,,,0.00,Wunderground v.1.15,2013-03-15 10:32:00,
2013-03-15 04:37:00,31.8,24.5,30.02,North,355,0.0,0.0,74,0.00,,,0.00,Wunderground v.1.15,2013-03-15 10:37:00,
2013-03-15 04:42:00,31.6,24.3,30.02,North,355,0.0,0.0,74,0.00,,,0.00,Wunderground v.1.15,2013-03-15 10:42:00,
2013-03-15 04:47:00,31.5,24.5,30.02,North,355,0.0,0.0,75,0.00,,,0.00,Wunderground v.1.15,2013-03-15 10:47:00,
2013-03-15 04:52:00,31.6,24.9,30.02,North,355,0.0,0.0,76,0.00,,,0.00,Wunderground v.1.15,2013-03-15 10:52:00,
2013-03-15 04:57:00,31.6,24.9,30.02,North,355,0.0,3.0,76,0.00,,,0.00,Wunderground v.1.15,2013-03-15 10:57:00,
2013-03-15 05:02:00,31.5,24.8,30.02,North,355,0.0,0.0,76,0.00,,,0.00,Wunderground v.1.15,2013-03-15 11:02:00,
2013-03-15 05:07:00,31.3,24.6,30.02,North,355,0.0,0.0,76,0.00,,,0.00,Wunderground v.1.15,2013-03-15 11:07:00,
2013-03-15 05:12:00,30.7,24.0,30.04,North,355,0.0,0.0,76,0.00,,,0.00,Wunderground v.1.15,2013-03-15 11:12:00,
2013-03-15 05:17:00,30.4,23.7,30.04,North,355,0.0,0.0,76,0.00,,,0.00,Wunderground v.1.15,2013-03-15 11:17:00,
2013-03-15 05:22:00,30.1,23.8,30.04,North,355,0.0,0.0,77,0.00,,,0.00,Wunderground v.1.15,2013-03-15 11:22:00,
2013-03-15 05:27:00,30.3,24.3,30.05,North,355,0.0,0.0,78,0.00,,,0.00,Wunderground v.1.15,2013-03-15 11:27:00,
2013-03-15 05:32:00,30.6,24.2,30.05,North,355,0.0,0.0,77,0.00,,,0.00,Wunderground v.1.15,2013-03-15 11:32:00,
2013-03-15 05:37:00,30.0,23.7,30.05,North,355,0.0,0.0,77,0.00,,,0.00,Wunderground v.1.15,2013-03-15 11:37:00,
2013-03-15 05:42:00,29.7,23.4,30.06,North,355,0.0,0.0,77,0.00,,,0.00,Wunderground v.1.15,2013-03-15 11:42:00,
2013-03-15 05:47:00,29.5,23.5,30.06,North,355,0.0,0.0,78,0.00,,,0.00,Wunderground v.1.15,2013-03-15 11:47:00,
2013-03-15 05:52:00,29.7,23.7,30.06,North,355,0.0,0.0,78,0.00,,,0.00,Wunderground v.1.15,2013-03-15 11:52:00,
2013-03-15 05:57:00,29.5,23.8,30.05,North,355,0.0,0.0,79,0.00,,,0.00,Wunderground v.1.15,2013-03-15 11:57:00,
2013-03-15 06:02:00,29.3,23.3,30.05,North,355,0.0,0.0,78,0.00,,,0.00,Wunderground v.1.15,2013-03-15 12:02:00,
2013-03-15 06:08:00,29.1,23.1,30.05,North,355,2.0,2.0,78,0.00,,,0.00,Wunderground v.1.15,2013-03-15 12:08:00,
2013-03-15 06:13:00,29.1,23.7,30.10,North,355,0.0,3.0,80,0.00,,,0.00,Wunderground v.1.15,2013-03-15 12:13:00,
2013-03-15 06:18:00,28.8,22.8,30.10,North,355,0.0,3.0,78,0.00,,,0.00,Wunderground v.1.15,2013-03-15 12:18:00,
2013-03-15 06:23:00,29.0,23.6,30.10,North,355,0.0,0.0,80,0.00,,,0.00,Wunderground v.1.15,2013-03-15 12:23:00,
2013-03-15 06:28:00,29.3,23.9,30.10,North,355,0.0,1.0,80,0.00,,,0.00,Wunderground v.1.15,2013-03-15 12:28:00,
2013-03-15 06:33:00,29.8,24.4,30.10,North,355,0.0,0.0,80,0.00,,,0.00,Wunderground v.1.15,2013-03-15 12:33:00,
2013-03-15 06:38:00,29.8,24.4,30.10,North,355,0.0,0.0,80,0.00,,,0.00,Wunderground v.1.15,2013-03-15 12:38:00,
2013-03-15 06:43:00,29.5,24.1,30.10,North,355,0.0,0.0,80,0.00,,,0.00,Wunderground v.1.15,2013-03-15 12:43:00,
2013-03-15 06:48:00,29.5,24.1,30.10,North,355,0.0,5.0,80,0.00,,,0.00,Wunderground v.1.15,2013-03-15 12:48:00,
2013-03-15 06:53:00,29.1,23.4,30.10,North,355,0.0,1.0,79,0.00,,,0.00,Wunderground v.1.15,2013-03-15 12:53:00,
2013-03-15 06:58:00,29.3,24.2,30.10,North,355,0.0,1.0,81,0.00,,,0.00,Wunderground v.1.15,2013-03-15 12:58:00,
2013-03-15 07:03:00,29.8,24.4,30.10,North,355,0.0,0.0,80,0.00,,,0.00,Wunderground v.1.15,2013-03-15 13:03:00,
2013-03-15 07:08:00,29.8,24.4,30.10,North,355,0.0,0.0,80,0.00,,,0.00,Wunderground v.1.15,2013-03-15 13:08:00,
2013-03-15 07:13:00,30.0,24.3,30.14,North,355,0.0,0.0,79,0.00,,,0.00,Wunderground v.1.15,2013-03-15 13:13:00,
2013-03-15 07:18:00,29.7,24.0,30.14,North,355,4.0,4.0,79,0.00,,,0.00,Wunderground v.1.15,2013-03-15 13:18:00,
2013-03-15 07:23:00,30.4,25.0,30.14,North,355,0.0,3.0,80,0.00,,,0.00,Wunderground v.1.15,2013-03-15 13:23:00,
2013-03-15 07:28:00,31.2,25.7,30.14,North,355,0.0,3.0,80,0.00,,,0.00,Wunderground v.1.15,2013-03-15 13:28:00,
2013-03-15 07:33:00,31.6,25.8,30.14,North,355,0.0,1.0,79,0.00,,,0.00,Wunderground v.1.15,2013-03-15 13:33:00,
2013-03-15 07:38:00,31.2,25.4,30.14,North,355,0.0,1.0,79,0.00,,,0.00,Wunderground v.1.15,2013-03-15 13:38:00,
2013-03-15 07:43:00,30.9,25.2,30.14,North,355,0.0,0.0,79,0.00,,,0.00,Wunderground v.1.15,2013-03-15 13:43:00,
2013-03-15 07:48:00,30.9,25.2,30.14,North,355,0.0,0.0,79,0.00,,,0.00,Wunderground v.1.15,2013-03-15 13:48:00,
2013-03-15 07:53:00,30.9,25.5,30.14,North,355,0.0,0.0,80,0.00,,,0.00,Wunderground v.1.15,2013-03-15 13:53:00,
2013-03-15 07:58:00,31.0,25.6,30.14,North,355,0.0,0.0,80,0.00,,,0.00,Wunderground v.1.15,2013-03-15 13:58:00,
2013-03-15 08:03:00,31.9,26.7,30.14,North,355,0.0,0.0,81,0.00,,,0.00,Wunderground v.1.15,2013-03-15 14:03:00,
2013-03-15 08:08:00,33.4,28.2,30.14,North,355,0.0,0.0,81,0.00,,,0.00,Wunderground v.1.15,2013-03-15 14:08:00,
2013-03-15 08:13:00,35.3,29.4,30.15,North,355,0.0,0.0,79,0.00,,,0.00,Wunderground v.1.15,2013-03-15 14:13:00,
2013-03-15 08:18:00,37.0,29.8,30.15,North,355,0.0,0.0,75,0.00,,,0.00,Wunderground v.1.15,2013-03-15 14:18:00,
2013-03-15 08:23:00,38.8,29.8,30.15,North,355,1.0,4.0,70,0.00,,,0.00,Wunderground v.1.15,2013-03-15 14:23:00,
2013-03-15 08:28:00,40.9,29.7,30.12,North,355,0.0,4.0,64,0.00,,,0.00,Wunderground v.1.15,2013-03-15 14:28:00,
2013-03-15 08:33:00,42.6,28.8,30.12,North,355,0.0,1.0,58,0.00,,,0.00,Wunderground v.1.15,2013-03-15 14:33:00,
2013-03-15 08:38:00,43.8,29.1,30.12,North,355,0.0,4.0,56,0.00,,,0.00,Wunderground v.1.15,2013-03-15 14:38:00,
2013-03-15 08:43:00,44.6,29.0,30.10,SE,138,2.0,6.0,54,0.00,,,0.00,Wunderground v.1.15,2013-03-15 14:43:00,
2013-03-15 08:48:00,45.5,29.3,30.10,SSE,155,2.0,6.0,53,0.00,,,0.00,Wunderground v.1.15,2013-03-15 14:48:00,
2013-03-15 08:53:00,46.0,29.3,30.10,SSE,154,1.0,4.0,52,0.00,,,0.00,Wunderground v.1.15,2013-03-15 14:53:00,
2013-03-15 08:58:00,46.4,28.8,30.10,SSE,154,2.0,5.0,50,0.00,,,0.00,Wunderground v.1.15,2013-03-15 14:58:00,
2013-03-15 09:03:00,47.0,28.8,30.10,SSE,154,1.0,5.0,49,0.00,,,0.00,Wunderground v.1.15,2013-03-15 15:03:00,
2013-03-15 09:08:00,47.7,28.9,30.10,SSE,153,3.0,5.0,48,0.00,,,0.00,Wunderground v.1.15,2013-03-15 15:08:00,
2013-03-15 09:13:00,48.8,28.9,30.09,SSE,152,3.0,6.0,46,0.00,,,0.00,Wunderground v.1.15,2013-03-15 15:13:00,
2013-03-15 09:18:00,49.8,27.6,30.09,SE,146,0.0,9.0,42,0.00,,,0.00,Wunderground v.1.15,2013-03-15 15:18:00,
2013-03-15 09:23:00,50.5,27.0,30.09,East,95,2.0,8.0,40,0.00,,,0.00,Wunderground v.1.15,2013-03-15 15:23:00,
2013-03-15 09:28:00,51.1,27.0,30.09,ESE,119,0.0,8.0,39,0.00,,,0.00,Wunderground v.1.15,2013-03-15 15:28:00,
2013-03-15 09:33:00,51.6,26.8,30.09,SE,126,0.0,3.0,38,0.00,,,0.00,Wunderground v.1.15,2013-03-15 15:33:00,
2013-03-15 09:38:00,51.9,27.1,30.09,ESE,119,3.0,5.0,38,0.00,,,0.00,Wunderground v.1.15,2013-03-15 15:38:00,
2013-03-15 09:43:00,52.0,27.1,30.08,ESE,119,0.0,3.0,38,0.00,,,0.00,Wunderground v.1.15,2013-03-15 15:43:00,
2013-03-15 09:48:00,52.2,27.3,30.08,ESE,119,0.0,3.0,38,0.00,,,0.00,Wunderground v.1.15,2013-03-15 15:48:00,
2013-03-15 09:53:00,52.5,27.6,30.08,ESE,119,0.0,0.0,38,0.00,,,0.00,Wunderground v.1.15,2013-03-15 15:53:00,
2013-03-15 09:58:00,52.5,27.6,30.08,SE,126,4.0,5.0,38,0.00,,,0.00,Wunderground v.1.15,2013-03-15 15:58:00,
2013-03-15 10:03:00,52.5,26.3,30.08,SE,127,0.0,3.0,36,0.00,,,0.00,Wunderground v.1.15,2013-03-15 16:03:00,
2013-03-15 10:08:00,52.8,27.2,30.08,SE,127,0.0,3.0,37,0.00,,,0.00,Wunderground v.1.15,2013-03-15 16:08:00,
2013-03-15 10:13:00,52.9,26.6,30.08,SE,127,0.0,1.0,36,0.00,,,0.00,Wunderground v.1.15,2013-03-15 16:13:00,
2013-03-15 10:18:00,53.3,27.0,30.08,SE,127,0.0,1.0,36,0.00,,,0.00,Wunderground v.1.15,2013-03-15 16:18:00,
2013-03-15 10:23:00,53.3,26.3,30.08,SE,126,0.0,3.0,35,0.00,,,0.00,Wunderground v.1.15,2013-03-15 16:23:00,
2013-03-15 10:28:00,53.5,26.5,30.07,SE,126,0.0,3.0,35,0.00,,,0.00,Wunderground v.1.15,2013-03-15 16:28:00,
2013-03-15 10:33:00,53.8,26.1,30.07,SE,126,1.0,3.0,34,0.00,,,0.00,Wunderground v.1.15,2013-03-15 16:33:00,
2013-03-15 10:38:00,53.6,25.9,30.07,SE,126,0.0,3.0,34,0.00,,,0.00,Wunderground v.1.15,2013-03-15 16:38:00,
2013-03-15 10:43:00,53.9,26.8,30.07,SE,126,0.0,1.0,35,0.00,,,0.00,Wunderground v.1.15,2013-03-15 16:43:00,
2013-03-15 10:48:00,54.5,26.0,30.07,SE,126,0.0,1.0,33,0.00,,,0.00,Wunderground v.1.15,2013-03-15 16:48:00,
2013-03-15 10:53:00,55.0,25.6,30.07,SE,126,0.0,0.0,32,0.00,,,0.00,Wunderground v.1.15,2013-03-15 16:53:00,
2013-03-15 10:58:00,55.1,25.7,30.06,SE,126,0.0,0.0,32,0.00,,,0.00,Wunderground v.1.15,2013-03-15 16:58:00,
2013-03-15 11:03:00,55.6,25.4,30.06,SE,126,0.0,0.0,31,0.00,,,0.00,Wunderground v.1.15,2013-03-15 17:03:00,
2013-03-15 11:08:00,56.2,25.9,30.06,SE,126,0.0,0.0,31,0.00,,,0.00,Wunderground v.1.15,2013-03-15 17:08:00,
2013-03-15 11:13:00,56.6,26.3,30.07,SE,126,0.0,0.0,31,0.00,,,0.00,Wunderground v.1.15,2013-03-15 17:13:00,
2013-03-15 11:18:00,57.2,26.8,30.07,SE,126,0.0,2.0,31,0.00,,,0.00,Wunderground v.1.15,2013-03-15 17:18:00,
2013-03-15 11:23:00,57.5,26.3,30.07,South,182,1.0,5.0,30,0.00,,,0.00,Wunderground v.1.15,2013-03-15 17:23:00,
2013-03-15 11:28:00,57.8,25.7,30.06,South,182,1.0,5.0,29,0.00,,,0.00,Wunderground v.1.15,2013-03-15 17:28:00,
2013-03-15 11:33:00,58.0,27.5,30.06,South,182,0.0,1.0,31,0.00,,,0.00,Wunderground v.1.15,2013-03-15 17:33:00,
2013-03-15 11:39:00,58.6,26.4,30.06,South,186,0.0,2.0,29,0.00,,,0.00,Wunderground v.1.15,2013-03-15 17:39:00,
2013-03-15 11:44:00,59.0,25.9,30.05,South,180,0.0,4.0,28,0.00,,,0.00,Wunderground v.1.15,2013-03-15 17:44:00,
2013-03-15 11:49:00,59.0,25.9,30.05,South,182,1.0,5.0,28,0.00,,,0.00,Wunderground v.1.15,2013-03-15 17:49:00,
2013-03-15 11:54:00,58.7,25.6,30.05,South,182,0.0,3.0,28,0.00,,,0.00,Wunderground v.1.15,2013-03-15 17:54:00,
2013-03-15 11:59:00,58.9,26.7,30.05,South,182,1.0,3.0,29,0.00,,,0.00,Wunderground v.1.15,2013-03-15 17:59:00,
2013-03-15 12:04:00,59.2,26.1,30.05,South,184,3.0,3.0,28,0.00,,,0.00,Wunderground v.1.15,2013-03-15 18:04:00,
2013-03-15 12:09:00,59.2,26.1,30.05,South,186,3.0,4.0,28,0.00,,,0.00,Wunderground v.1.15,2013-03-15 18:09:00,
2013-03-15 12:14:00,59.3,26.2,30.05,South,186,0.0,4.0,28,0.00,,,0.00,Wunderground v.1.15,2013-03-15 18:14:00,
2013-03-15 12:19:00,59.6,25.5,30.05,South,186,0.0,4.0,27,0.00,,,0.00,Wunderground v.1.15,2013-03-15 18:19:00,
2013-03-15 12:24:00,60.1,26.9,30.05,South,185,2.0,5.0,28,0.00,,,0.00,Wunderground v.1.15,2013-03-15 18:24:00,
2013-03-15 12:29:00,61.0,26.7,30.03,South,188,0.0,5.0,27,0.00,,,0.00,Wunderground v.1.15,2013-03-15 18:29:00,
2013-03-15 12:34:00,62.0,27.6,30.03,SSW,200,3.0,3.0,27,0.00,,,0.00,Wunderground v.1.15,2013-03-15 18:34:00,
2013-03-15 12:39:00,62.1,28.6,30.03,NNW,346,1.0,5.0,28,0.00,,,0.00,Wunderground v.1.15,2013-03-15 18:39:00,
2013-03-15 12:44:00,61.6,28.1,30.02,NNW,348,2.0,6.0,28,0.00,,,0.00,Wunderground v.1.15,2013-03-15 18:44:00,
2013-03-15 12:49:00,61.5,27.2,30.02,North,350,1.0,6.0,27,0.00,,,0.00,Wunderground v.1.15,2013-03-15 18:49:00,
2013-03-15 12:54:00,61.2,27.8,30.02,NNE,14,3.0,5.0,28,0.00,,,0.00,Wunderground v.1.15,2013-03-15 18:54:00,
2013-03-15 12:59:00,61.6,27.3,30.02,NNE,15,0.0,5.0,27,0.00,,,0.00,Wunderground v.1.15,2013-03-15 18:59:00,
2013-03-15 13:04:00,62.1,27.7,30.02,NNE,15,0.0,3.0,27,0.00,,,0.00,Wunderground v.1.15,2013-03-15 19:04:00,
2013-03-15 13:09:00,62.6,27.2,30.02,NNE,15,0.0,3.0,26,0.00,,,0.00,Wunderground v.1.15,2013-03-15 19:09:00,
2013-03-15 13:14:00,63.2,27.7,29.98,NNE,15,0.0,2.0,26,0.00,,,0.00,Wunderground v.1.15,2013-03-15 19:14:00,
2013-03-15 13:19:00,63.4,27.9,29.98,NNE,15,0.0,3.0,26,0.00,,,0.00,Wunderground v.1.15,2013-03-15 19:19:00,
2013-03-15 13:24:00,63.5,28.0,29.98,NNE,15,0.0,2.0,26,0.00,,,0.00,Wunderground v.1.15,2013-03-15 19:24:00,
2013-03-15 13:29:00,63.5,28.0,29.97,North,355,3.0,5.0,26,0.00,,,0.00,Wunderground v.1.15,2013-03-15 19:29:00,
2013-03-15 13:34:00,63.1,26.7,29.97,North,355,4.0,5.0,25,0.00,,,0.00,Wunderground v.1.15,2013-03-15 19:34:00,
2013-03-15 13:39:00,62.9,27.5,29.97,North,355,0.0,6.0,26,0.00,,,0.00,Wunderground v.1.15,2013-03-15 19:39:00,
2013-03-15 13:44:00,63.2,26.8,29.97,NNW,348,0.0,5.0,25,0.00,,,0.00,Wunderground v.1.15,2013-03-15 19:44:00,
2013-03-15 13:49:00,63.7,27.2,29.97,NNW,348,2.0,5.0,25,0.00,,,0.00,Wunderground v.1.15,2013-03-15 19:49:00,
2013-03-15 13:54:00,64.3,27.7,29.97,North,355,4.0,6.0,25,0.00,,,0.00,Wunderground v.1.15,2013-03-15 19:54:00,
2013-03-15 13:59:00,64.7,26.0,29.95,North,355,1.0,6.0,23,0.00,,,0.00,Wunderground v.1.15,2013-03-15 19:59:00,
2013-03-15 14:04:00,65.3,26.5,29.95,North,355,3.0,4.0,23,0.00,,,0.00,Wunderground v.1.15,2013-03-15 20:04:00,
2013-03-15 14:09:00,66.0,26.0,29.95,North,355,0.0,4.0,22,0.00,,,0.00,Wunderground v.1.15,2013-03-15 20:09:00,
2013-03-15 14:14:00,66.3,25.2,29.92,East,85,0.0,4.0,21,0.00,,,0.00,Wunderground v.1.15,2013-03-15 20:14:00,
2013-03-15 14:19:00,66.9,26.8,29.92,SE,140,3.0,5.0,22,0.00,,,0.00,Wunderground v.1.15,2013-03-15 20:19:00,
2013-03-15 14:24:00,66.9,24.5,29.92,SE,141,2.0,5.0,20,0.00,,,0.00,Wunderground v.1.15,2013-03-15 20:24:00,
2013-03-15 14:29:00,67.1,25.8,29.91,NE,36,3.0,5.0,21,0.00,,,0.00,Wunderground v.1.15,2013-03-15 20:29:00,
2013-03-15 14:34:00,67.1,25.8,29.91,North,360,2.0,5.0,21,0.00,,,0.00,Wunderground v.1.15,2013-03-15 20:34:00,
2013-03-15 14:39:00,66.6,26.5,29.91,NE,38,3.0,9.0,22,0.00,,,0.00,Wunderground v.1.15,2013-03-15 20:39:00,
2013-03-15 14:44:00,66.4,26.4,29.89,NE,38,0.0,4.0,22,0.00,,,0.00,Wunderground v.1.15,2013-03-15 20:44:00,
2013-03-15 14:49:00,66.9,25.7,29.89,NNE,26,4.0,6.0,21,0.00,,,0.00,Wunderground v.1.15,2013-03-15 20:49:00,
2013-03-15 14:54:00,66.9,25.7,29.89,NNE,13,4.0,7.0,21,0.00,,,0.00,Wunderground v.1.15,2013-03-15 20:54:00,
2013-03-15 14:59:00,67.3,26.0,29.89,NE,38,9.0,9.0,21,0.00,,,0.00,Wunderground v.1.15,2013-03-15 20:59:00,
2013-03-15 15:04:00,67.4,24.9,29.89,NNE,24,5.0,7.0,20,0.00,,,0.00,Wunderground v.1.15,2013-03-15 21:04:00,
2013-03-15 15:09:00,67.6,26.2,29.89,NNE,23,4.0,7.0,21,0.00,,,0.00,Wunderground v.1.15,2013-03-15 21:09:00,
2013-03-15 15:14:00,67.4,24.9,29.88,NE,55,0.0,6.0,20,0.00,,,0.00,Wunderground v.1.15,2013-03-15 21:14:00,
2013-03-15 15:19:00,67.9,26.5,29.88,NE,54,3.0,7.0,21,0.00,,,0.00,Wunderground v.1.15,2013-03-15 21:19:00,
2013-03-15 15:24:00,68.1,25.5,29.88,NNE,14,0.0,6.0,20,0.00,,,0.00,Wunderground v.1.15,2013-03-15 21:24:00,
2013-03-15 15:29:00,68.4,25.7,29.87,North,11,2.0,6.0,20,0.00,,,0.00,Wunderground v.1.15,2013-03-15 21:29:00,
2013-03-15 15:34:00,69.3,26.5,29.87,North,11,0.0,3.0,20,0.00,,,0.00,Wunderground v.1.15,2013-03-15 21:34:00,
2013-03-15 15:39:00,69.1,25.1,29.87,NNE,26,3.0,7.0,19,0.00,,,0.00,Wunderground v.1.15,2013-03-15 21:39:00,
2013-03-15 15:44:00,68.4,25.7,29.87,NNE,26,0.0,3.0,20,0.00,,,0.00,Wunderground v.1.15,2013-03-15 21:44:00,
2013-03-15 15:49:00,68.1,25.5,29.87,NNE,26,2.0,4.0,20,0.00,,,0.00,Wunderground v.1.15,2013-03-15 21:49:00,
2013-03-15 15:54:00,68.1,25.5,29.87,NNE,26,1.0,2.0,20,0.00,,,0.00,Wunderground v.1.15,2013-03-15 21:54:00,
2013-03-15 15:59:00,68.4,25.7,29.86,North,360,1.0,5.0,20,0.00,,,0.00,Wunderground v.1.15,2013-03-15 21:59:00,
2013-03-15 16:04:00,68.6,25.9,29.86,North,355,4.0,6.0,20,0.00,,,0.00,Wunderground v.1.15,2013-03-15 22:04:00,
2013-03-15 16:09:00,68.8,26.1,29.86,North,355,0.0,6.0,20,0.00,,,0.00,Wunderground v.1.15,2013-03-15 22:09:00,
2013-03-15 16:14:00,69.3,26.5,29.86,NNW,333,3.0,5.0,20,0.00,,,0.00,Wunderground v.1.15,2013-03-15 22:14:00,
2013-03-15 16:19:00,69.3,26.5,29.86,NW,306,4.0,5.0,20,0.00,,,0.00,Wunderground v.1.15,2013-03-15 22:19:00,
2013-03-15 16:24:00,69.8,26.9,29.86,NNW,328,1.0,6.0,20,0.00,,,0.00,Wunderground v.1.15,2013-03-15 22:24:00,
2013-03-15 16:29:00,70.1,27.1,29.85,WNW,301,4.0,9.0,20,0.00,,,0.00,Wunderground v.1.15,2013-03-15 22:29:00,
2013-03-15 16:34:00,69.8,26.9,29.85,NW,315,1.0,5.0,20,0.00,,,0.00,Wunderground v.1.15,2013-03-15 22:34:00,
2013-03-15 16:39:00,69.3,26.5,29.85,NW,315,0.0,5.0,20,0.00,,,0.00,Wunderground v.1.15,2013-03-15 22:39:00,
2013-03-15 16:44:00,69.1,26.3,29.85,NW,316,0.0,4.0,20,0.00,,,0.00,Wunderground v.1.15,2013-03-15 22:44:00,
2013-03-15 16:49:00,69.1,26.3,29.85,NW,315,2.0,5.0,20,0.00,,,0.00,Wunderground v.1.15,2013-03-15 22:49:00,
2013-03-15 16:54:00,68.9,26.1,29.85,NW,315,0.0,3.0,20,0.00,,,0.00,Wunderground v.1.15,2013-03-15 22:54:00,
2013-03-15 16:59:00,68.9,27.3,29.85,NW,315,1.0,3.0,21,0.00,,,0.00,Wunderground v.1.15,2013-03-15 22:59:00,
2013-03-15 17:04:00,68.8,26.1,29.85,NW,315,0.0,1.0,20,0.00,,,0.00,Wunderground v.1.15,2013-03-15 23:04:00,
2013-03-15 17:09:00,68.6,27.1,29.85,NW,315,0.0,2.0,21,0.00,,,0.00,Wunderground v.1.15,2013-03-15 23:09:00,
2013-03-15 17:14:00,68.4,25.7,29.85,NW,315,1.0,4.0,20,0.00,,,0.00,Wunderground v.1.15,2013-03-15 23:14:00,
2013-03-15 17:19:00,68.3,26.8,29.85,NW,315,0.0,4.0,21,0.00,,,0.00,Wunderground v.1.15,2013-03-15 23:19:00,
2013-03-15 17:24:00,67.9,26.5,29.85,NW,315,0.0,2.0,21,0.00,,,0.00,Wunderground v.1.15,2013-03-15 23:24:00,
2013-03-15 17:29:00,67.8,27.5,29.85,NW,315,1.0,2.0,22,0.00,,,0.00,Wunderground v.1.15,2013-03-15 23:29:00,
2013-03-15 17:34:00,67.6,27.4,29.85,NW,315,0.0,2.0,22,0.00,,,0.00,Wunderground v.1.15,2013-03-15 23:34:00,
2013-03-15 17:39:00,67.6,27.4,29.85,NW,315,2.0,2.0,22,0.00,,,0.00,Wunderground v.1.15,2013-03-15 23:39:00,
2013-03-15 17:44:00,67.6,27.4,29.85,NW,315,0.0,2.0,22,0.00,,,0.00,Wunderground v.1.15,2013-03-15 23:44:00,
2013-03-15 17:49:00,67.4,27.2,29.85,NW,315,2.0,2.0,22,0.00,,,0.00,Wunderground v.1.15,2013-03-15 23:49:00,
2013-03-15 17:54:00,67.3,27.1,29.85,NW,315,0.0,2.0,22,0.00,,,0.00,Wunderground v.1.15,2013-03-15 23:54:00,
2013-03-15 17:59:00,67.1,28.0,29.86,NW,315,0.0,2.0,23,0.00,,,0.00,Wunderground v.1.15,2013-03-15 23:59:00,
2013-03-15 18:04:00,66.8,26.7,29.86,NW,315,0.0,2.0,22,0.00,,,0.00,Wunderground v.1.15,2013-03-16 00:04:00,
2013-03-15 18:09:00,66.6,26.5,29.86,NW,315,0.0,2.0,22,0.00,,,0.00,Wunderground v.1.15,2013-03-16 00:09:00,
2013-03-15 18:14:00,66.3,26.3,29.86,NW,315,0.0,0.0,22,0.00,,,0.00,Wunderground v.1.15,2013-03-16 00:14:00,
2013-03-15 18:20:00,66.1,27.2,29.86,NW,315,0.0,0.0,23,0.00,,,0.00,Wunderground v.1.15,2013-03-16 00:20:00,
2013-03-15 18:25:00,65.8,26.9,29.86,NW,315,0.0,0.0,23,0.00,,,0.00,Wunderground v.1.15,2013-03-16 00:25:00,
2013-03-15 18:30:00,65.5,27.7,29.86,NW,315,0.0,0.0,24,0.00,,,0.00,Wunderground v.1.15,2013-03-16 00:30:00,
2013-03-15 18:35:00,64.8,28.1,29.86,NW,315,0.0,0.0,25,0.00,,,0.00,Wunderground v.1.15,2013-03-16 00:35:00,
2013-03-15 18:40:00,64.3,27.7,29.86,NW,315,0.0,0.0,25,0.00,,,0.00,Wunderground v.1.15,2013-03-16 00:40:00,
2013-03-15 18:45:00,63.5,28.9,29.87,NW,315,0.0,0.0,27,0.00,,,0.00,Wunderground v.1.15,2013-03-16 00:45:00,
2013-03-15 18:50:00,62.7,29.1,29.87,NW,315,0.0,0.0,28,0.00,,,0.00,Wunderground v.1.15,2013-03-16 00:50:00,
2013-03-15 18:55:00,62.1,28.6,29.87,NW,315,0.0,0.0,28,0.00,,,0.00,Wunderground v.1.15,2013-03-16 00:55:00,
2013-03-15 19:00:00,61.3,27.9,29.88,NW,315,0.0,0.0,28,0.00,,,0.00,Wunderground v.1.15,2013-03-16 01:00:00,
2013-03-15 19:05:00,60.4,27.1,29.88,NW,315,0.0,0.0,28,0.00,,,0.00,Wunderground v.1.15,2013-03-16 01:05:00,
2013-03-15 19:10:00,59.6,28.1,29.88,NW,315,0.0,0.0,30,0.00,,,0.00,Wunderground v.1.15,2013-03-16 01:10:00,
2013-03-15 19:15:00,58.9,27.5,29.88,NW,315,0.0,0.0,30,0.00,,,0.00,Wunderground v.1.15,2013-03-16 01:15:00,
2013-03-15 19:20:00,58.1,28.4,29.88,NW,315,0.0,0.0,32,0.00,,,0.00,Wunderground v.1.15,2013-03-16 01:20:00,
2013-03-15 19:25:00,57.3,29.9,29.88,NW,315,0.0,0.0,35,0.00,,,0.00,Wunderground v.1.15,2013-03-16 01:25:00,
2013-03-15 19:30:00,56.3,29.0,29.89,NW,315,0.0,0.0,35,0.00,,,0.00,Wunderground v.1.15,2013-03-16 01:30:00,
2013-03-15 19:35:00,55.6,29.7,29.89,NW,315,0.0,0.0,37,0.00,,,0.00,Wunderground v.1.15,2013-03-16 01:35:00,
2013-03-15 19:40:00,55.1,29.3,29.89,NW,315,0.0,0.0,37,0.00,,,0.00,Wunderground v.1.15,2013-03-16 01:40:00,
2013-03-15 19:45:00,54.2,29.8,29.90,NW,315,0.0,0.0,39,0.00,,,0.00,Wunderground v.1.15,2013-03-16 01:45:00,
2013-03-15 19:50:00,53.8,30.0,29.90,NW,315,0.0,0.0,40,0.00,,,0.00,Wunderground v.1.15,2013-03-16 01:50:00,
2013-03-15 19:55:00,53.2,30.1,29.90,NW,315,0.0,0.0,41,0.00,,,0.00,Wunderground v.1.15,2013-03-16 01:55:00,
2013-03-15 20:00:00,52.6,28.3,29.92,NW,315,0.0,0.0,39,0.00,,,0.00,Wunderground v.1.15,2013-03-16 02:00:00,
2013-03-15 20:05:00,52.2,29.2,29.92,NW,315,0.0,0.0,41,0.00,,,0.00,Wunderground v.1.15,2013-03-16 02:05:00,
2013-03-15 20:10:00,51.9,29.5,29.92,NW,315,0.0,0.0,42,0.00,,,0.00,Wunderground v.1.15,2013-03-16 02:10:00,
2013-03-15 20:15:00,51.4,29.6,29.84,NW,315,0.0,0.0,43,0.00,,,0.00,Wunderground v.1.15,2013-03-16 02:15:00,
2013-03-15 20:20:00,50.8,29.6,29.84,NW,315,0.0,0.0,44,0.00,,,0.00,Wunderground v.1.15,2013-03-16 02:20:00,
2013-03-15 20:25:00,50.7,29.6,29.84,NW,315,0.0,2.0,44,0.00,,,0.00,Wunderground v.1.15,2013-03-16 02:25:00,
2013-03-15 20:30:00,50.2,29.1,29.84,NW,315,0.0,0.0,44,0.00,,,0.00,Wunderground v.1.15,2013-03-16 02:30:00,
2013-03-15 20:35:00,50.1,31.7,29.84,NW,315,0.0,0.0,49,0.00,,,0.00,Wunderground v.1.15,2013-03-16 02:35:00,
2013-03-15 20:40:00,49.9,31.0,29.84,NW,315,0.0,0.0,48,0.00,,,0.00,Wunderground v.1.15,2013-03-16 02:40:00,
2013-03-15 20:45:00,49.6,30.7,29.84,NW,315,0.0,0.0,48,0.00,,,0.00,Wunderground v.1.15,2013-03-16 02:45:00,
2013-03-15 20:50:00,49.2,30.8,29.84,NW,315,0.0,0.0,49,0.00,,,0.00,Wunderground v.1.15,2013-03-16 02:50:00,
2013-03-15 20:55:00,48.6,30.3,29.84,NW,315,0.0,0.0,49,0.00,,,0.00,Wunderground v.1.15,2013-03-16 02:55:00,
2013-03-15 21:00:00,48.2,29.9,29.85,NW,315,0.0,0.0,49,0.00,,,0.00,Wunderground v.1.15,2013-03-16 03:00:00,
2013-03-15 21:05:00,47.9,29.6,29.85,NW,315,0.0,0.0,49,0.00,,,0.00,Wunderground v.1.15,2013-03-16 03:05:00,
2013-03-15 21:10:00,47.3,29.6,29.85,NW,315,0.0,0.0,50,0.00,,,0.00,Wunderground v.1.15,2013-03-16 03:10:00,
2013-03-15 21:15:00,46.4,29.2,29.82,NW,315,0.0,1.0,51,0.00,,,0.00,Wunderground v.1.15,2013-03-16 03:15:00,
2013-03-15 21:20:00,46.1,30.8,29.82,NW,315,0.0,0.0,55,0.00,,,0.00,Wunderground v.1.15,2013-03-16 03:20:00,
2013-03-15 21:25:00,45.7,30.4,29.82,NW,315,0.0,0.0,55,0.00,,,0.00,Wunderground v.1.15,2013-03-16 03:25:00,
2013-03-15 21:30:00,45.2,29.5,29.83,NW,315,0.0,0.0,54,0.00,,,0.00,Wunderground v.1.15,2013-03-16 03:30:00,
2013-03-15 21:35:00,45.1,29.0,29.83,NW,315,0.0,0.0,53,0.00,,,0.00,Wunderground v.1.15,2013-03-16 03:35:00,
2013-03-15 21:40:00,44.9,28.8,29.83,NW,315,0.0,0.0,53,0.00,,,0.00,Wunderground v.1.15,2013-03-16 03:40:00,
2013-03-15 21:45:00,44.6,28.5,29.83,NW,315,0.0,0.0,53,0.00,,,0.00,Wunderground v.1.15,2013-03-16 03:45:00,
2013-03-15 21:50:00,44.9,28.8,29.83,NW,315,2.0,2.0,53,0.00,,,0.00,Wunderground v.1.15,2013-03-16 03:50:00,
2013-03-15 21:55:00,44.5,28.4,29.83,NW,315,0.0,2.0,53,0.00,,,0.00,Wunderground v.1.15,2013-03-16 03:55:00,
2013-03-15 22:00:00,44.3,28.7,29.84,NW,315,0.0,2.0,54,0.00,,,0.00,Wunderground v.1.15,2013-03-16 04:00:00,
2013-03-15 22:05:00,44.3,28.2,29.84,NW,315,0.0,0.0,53,0.00,,,0.00,Wunderground v.1.15,2013-03-16 04:05:00,
2013-03-15 22:10:00,43.9,28.3,29.84,NW,315,0.0,0.0,54,0.00,,,0.00,Wunderground v.1.15,2013-03-16 04:10:00,
2013-03-15 22:15:00,43.2,27.7,29.83,NW,315,0.0,3.0,54,0.00,,,0.00,Wunderground v.1.15,2013-03-16 04:15:00,
2013-03-15 22:20:00,42.9,28.3,29.83,NW,315,0.0,0.0,56,0.00,,,0.00,Wunderground v.1.15,2013-03-16 04:20:00,
2013-03-15 22:25:00,43.1,28.0,29.83,NW,315,0.0,0.0,55,0.00,,,0.00,Wunderground v.1.15,2013-03-16 04:25:00,
2013-03-15 22:30:00,42.9,27.8,29.83,NW,315,0.0,0.0,55,0.00,,,0.00,Wunderground v.1.15,2013-03-16 04:30:00,
2013-03-15 22:35:00,42.5,27.9,29.83,NW,315,0.0,3.0,56,0.00,,,0.00,Wunderground v.1.15,2013-03-16 04:35:00,
2013-03-15 22:40:00,42.5,28.3,29.83,NW,315,0.0,1.0,57,0.00,,,0.00,Wunderground v.1.15,2013-03-16 04:40:00,
2013-03-15 22:45:00,42.3,28.1,29.83,NW,315,0.0,1.0,57,0.00,,,0.00,Wunderground v.1.15,2013-03-16 04:45:00,
2013-03-15 22:50:00,42.1,28.4,29.83,NW,315,0.0,0.0,58,0.00,,,0.00,Wunderground v.1.15,2013-03-16 04:50:00,
2013-03-15 22:55:00,41.6,27.9,29.83,NW,315,0.0,0.0,58,0.00,,,0.00,Wunderground v.1.15,2013-03-16 04:55:00,
2013-03-15 23:00:00,41.3,27.6,29.84,NW,315,0.0,0.0,58,0.00,,,0.00,Wunderground v.1.15,2013-03-16 05:00:00,
2013-03-15 23:05:00,41.2,27.9,29.84,NW,315,0.0,0.0,59,0.00,,,0.00,Wunderground v.1.15,2013-03-16 05:05:00,
2013-03-15 23:10:00,41.9,27.8,29.84,NW,315,0.0,0.0,57,0.00,,,0.00,Wunderground v.1.15,2013-03-16 05:10:00,
2013-03-15 23:15:00,41.8,28.1,29.82,NW,315,0.0,0.0,58,0.00,,,0.00,Wunderground v.1.15,2013-03-16 05:15:00,
2013-03-15 23:20:00,41.5,27.8,29.82,NW,315,0.0,0.0,58,0.00,,,0.00,Wunderground v.1.15,2013-03-16 05:20:00,
2013-03-15 23:25:00,40.9,27.2,29.82,NW,315,1.0,2.0,58,0.00,,,0.00,Wunderground v.1.15,2013-03-16 05:25:00,
2013-03-15 23:30:00,40.1,27.3,29.83,NW,315,0.0,0.0,60,0.00,,,0.00,Wunderground v.1.15,2013-03-16 05:30:00,
2013-03-15 23:35:00,39.8,27.4,29.83,NW,315,0.0,0.0,61,0.00,,,0.00,Wunderground v.1.15,2013-03-16 05:35:00,
2013-03-15 23:40:00,39.6,26.8,29.83,NW,315,0.0,0.0,60,0.00,,,0.00,Wunderground v.1.15,2013-03-16 05:40:00,
2013-03-15 23:45:00,39.6,27.6,29.82,NW,315,0.0,0.0,62,0.00,,,0.00,Wunderground v.1.15,2013-03-16 05:45:00,
2013-03-15 23:50:00,39.6,27.2,29.82,NW,315,0.0,0.0,61,0.00,,,0.00,Wunderground v.1.15,2013-03-16 05:50:00,
2013-03-15 23:55:00,39.5,27.9,29.82,NW,315,0.0,0.0,63,0.00,,,0.00,Wunderground v.1.15,2013-03-16 05:55:00,